sensor_id;sensor_type;location;lat;lon;timestamp;pressure;altitude;pressure_sealevel;temperature;humidity
43155;BME280;34212;51.018;13.586;2023-04-27T05:03:38;98178.53;;;4.32;60.00
43155;BME280;34212;51.018;13.586;2023-04-27T05:08:40;98170.78;;;4.40;59.71
43155;BME280;34212;51.018;13.586;2023-04-27T05:13:42;98175.69;;;4.54;60.38
43155;BME280;34212;51.018;13.586;2023-04-27T05:18:43;98178.00;;;4.69;59.97
43155;BME280;34212;51.018;13.586;2023-04-27T05:23:45;98175.00;;;4.83;60.38
43155;BME280;34212;51.018;13.586;2023-04-27T05:28:47;98180.03;;;4.96;60.44
43155;BME280;34212;51.018;13.586;2023-04-27T05:33:49;98180.34;;;5.12;60.86
43155;BME280;34212;51.018;13.586;2023-04-27T05:38:51;98175.34;;;5.28;60.83
43155;BME280;34212;51.018;13.586;2023-04-27T05:43:52;98181.78;;;5.45;61.03
43155;BME280;34212;51.018;13.586;2023-04-27T05:48:54;98180.94;;;5.64;61.34
43155;BME280;34212;51.018;13.586;2023-04-27T05:53:55;98175.09;;;5.80;61.10
43155;BME280;34212;51.018;13.586;2023-04-27T05:58:57;98173.56;;;5.97;61.35
43155;BME280;34212;51.018;13.586;2023-04-27T06:04:01;98180.50;;;6.17;61.27
43155;BME280;34212;51.018;13.586;2023-04-27T06:09:03;98182.25;;;6.36;61.44
43155;BME280;34212;51.018;13.586;2023-04-27T06:14:04;98174.97;;;6.48;61.40
43155;BME280;34212;51.018;13.586;2023-04-27T06:19:06;98174.63;;;6.61;61.32
43155;BME280;34212;51.018;13.586;2023-04-27T06:24:07;98179.34;;;6.67;61.36
43155;BME280;34212;51.018;13.586;2023-04-27T06:29:09;98185.88;;;6.72;60.75
43155;BME280;34212;51.018;13.586;2023-04-27T06:34:10;98190.16;;;6.83;60.73
43155;BME280;34212;51.018;13.586;2023-04-27T06:39:12;98184.63;;;7.04;60.72
43155;BME280;34212;51.018;13.586;2023-04-27T06:44:14;98183.59;;;7.33;60.18
43155;BME280;34212;51.018;13.586;2023-04-27T06:49:16;98183.84;;;7.57;59.94
43155;BME280;34212;51.018;13.586;2023-04-27T06:54:17;98196.72;;;7.70;59.54
43155;BME280;34212;51.018;13.586;2023-04-27T06:59:19;98190.34;;;7.81;59.07
43155;BME280;34212;51.018;13.586;2023-04-27T07:04:20;98194.13;;;7.96;58.68
43155;BME280;34212;51.018;13.586;2023-04-27T07:09:22;98201.84;;;8.07;58.43
43155;BME280;34212;51.018;13.586;2023-04-27T07:14:28;98198.19;;;8.08;57.98
43155;BME280;34212;51.018;13.586;2023-04-27T07:19:29;98209.97;;;8.06;57.27
43155;BME280;34212;51.018;13.586;2023-04-27T07:24:31;98212.56;;;7.98;57.01
43155;BME280;34212;51.018;13.586;2023-04-27T07:29:32;98209.22;;;7.96;57.21
43155;BME280;34212;51.018;13.586;2023-04-27T07:34:34;98215.13;;;8.07;57.32
43155;BME280;34212;51.018;13.586;2023-04-27T07:39:50;98211.19;;;8.12;56.62
43155;BME280;34212;51.018;13.586;2023-04-27T07:44:55;98208.41;;;8.21;56.93
43155;BME280;34212;51.018;13.586;2023-04-27T07:49:57;98219.78;;;8.31;56.14
43155;BME280;34212;51.018;13.586;2023-04-27T07:54:58;98215.25;;;8.42;55.84
43155;BME280;34212;51.018;13.586;2023-04-27T08:00:00;98224.25;;;8.49;55.43
43155;BME280;34212;51.018;13.586;2023-04-27T08:05:13;98233.28;;;8.56;55.24
43155;BME280;34212;51.018;13.586;2023-04-27T08:10:15;98229.41;;;8.76;53.65
43155;BME280;34212;51.018;13.586;2023-04-27T08:15:17;98235.25;;;9.14;53.47
43155;BME280;34212;51.018;13.586;2023-04-27T08:20:18;98231.47;;;9.33;52.53
43155;BME280;34212;51.018;13.586;2023-04-27T08:25:20;98229.34;;;9.45;52.61
43155;BME280;34212;51.018;13.586;2023-04-27T08:30:21;98230.03;;;9.55;50.75
43155;BME280;34212;51.018;13.586;2023-04-27T08:35:23;98228.09;;;9.74;50.00
43155;BME280;34212;51.018;13.586;2023-04-27T08:40:24;98228.78;;;9.92;50.73
43155;BME280;34212;51.018;13.586;2023-04-27T08:45:26;98225.13;;;10.01;49.53
43155;BME280;34212;51.018;13.586;2023-04-27T08:50:28;98234.09;;;10.08;49.77
43155;BME280;34212;51.018;13.586;2023-04-27T08:55:31;98222.97;;;10.13;49.16
43155;BME280;34212;51.018;13.586;2023-04-27T09:00:40;98226.59;;;10.12;49.99
43155;BME280;34212;51.018;13.586;2023-04-27T09:05:47;98237.44;;;10.18;49.30
43155;BME280;34212;51.018;13.586;2023-04-27T09:11:04;98215.13;;;10.28;49.77
43155;BME280;34212;51.018;13.586;2023-04-27T09:16:07;98235.13;;;10.40;49.26
43155;BME280;34212;51.018;13.586;2023-04-27T09:21:08;98229.75;;;10.73;49.17
43155;BME280;34212;51.018;13.586;2023-04-27T09:26:21;98230.50;;;10.98;48.04
43155;BME280;34212;51.018;13.586;2023-04-27T09:31:30;98215.66;;;10.95;48.34
43155;BME280;34212;51.018;13.586;2023-04-27T09:36:33;98222.69;;;10.88;48.79
43155;BME280;34212;51.018;13.586;2023-04-27T09:41:35;98216.69;;;10.86;48.10
43155;BME280;34212;51.018;13.586;2023-04-27T09:46:36;98212.72;;;10.82;46.98
43155;BME280;34212;51.018;13.586;2023-04-27T09:51:38;98208.66;;;10.94;47.30
43155;BME280;34212;51.018;13.586;2023-04-27T09:56:59;98199.28;;;11.06;46.23
43155;BME280;34212;51.018;13.586;2023-04-27T10:02:04;98205.94;;;11.02;46.60
43155;BME280;34212;51.018;13.586;2023-04-27T10:07:26;98190.41;;;11.14;46.04
43155;BME280;34212;51.018;13.586;2023-04-27T10:12:37;98191.50;;;11.28;45.11
43155;BME280;34212;51.018;13.586;2023-04-27T10:17:45;98194.13;;;11.36;45.61
43155;BME280;34212;51.018;13.586;2023-04-27T10:22:48;98204.06;;;11.50;45.56
43155;BME280;34212;51.018;13.586;2023-04-27T10:27:57;98203.16;;;11.35;45.37
43155;BME280;34212;51.018;13.586;2023-04-27T10:33:06;98199.91;;;11.48;44.95
43155;BME280;34212;51.018;13.586;2023-04-27T10:38:14;98206.66;;;11.59;45.00
43155;BME280;34212;51.018;13.586;2023-04-27T10:43:16;98208.28;;;11.45;44.39
43155;BME280;34212;51.018;13.586;2023-04-27T10:48:18;98209.75;;;11.47;44.94
43155;BME280;34212;51.018;13.586;2023-04-27T10:53:19;98197.81;;;11.58;44.45
43155;BME280;34212;51.018;13.586;2023-04-27T10:58:21;98200.06;;;11.77;44.38
43155;BME280;34212;51.018;13.586;2023-04-27T11:03:23;98198.16;;;11.86;44.15
43155;BME280;34212;51.018;13.586;2023-04-27T11:08:25;98198.91;;;12.03;43.75
43155;BME280;34212;51.018;13.586;2023-04-27T11:13:27;98199.88;;;12.25;43.11
43155;BME280;34212;51.018;13.586;2023-04-27T11:18:30;98189.22;;;12.40;42.95
43155;BME280;34212;51.018;13.586;2023-04-27T11:23:32;98199.38;;;12.59;43.03
43155;BME280;34212;51.018;13.586;2023-04-27T11:28:41;98196.72;;;12.59;42.90
43155;BME280;34212;51.018;13.586;2023-04-27T11:33:48;98205.16;;;12.48;42.72
43155;BME280;34212;51.018;13.586;2023-04-27T11:38:56;98199.91;;;12.55;41.98
43155;BME280;34212;51.018;13.586;2023-04-27T11:44:03;98193.84;;;12.61;42.05
43155;BME280;34212;51.018;13.586;2023-04-27T11:49:06;98213.22;;;12.63;41.85
43155;BME280;34212;51.018;13.586;2023-04-27T11:54:11;98216.28;;;12.75;41.69
43155;BME280;34212;51.018;13.586;2023-04-27T11:59:18;98215.28;;;12.90;41.74
43155;BME280;34212;51.018;13.586;2023-04-27T12:04:20;98217.00;;;13.13;41.71
43155;BME280;34212;51.018;13.586;2023-04-27T12:09:22;98222.66;;;13.03;41.13
43155;BME280;34212;51.018;13.586;2023-04-27T12:14:24;98214.34;;;13.13;41.13
43155;BME280;34212;51.018;13.586;2023-04-27T12:19:26;98222.63;;;13.33;40.86
43155;BME280;34212;51.018;13.586;2023-04-27T12:24:27;98219.66;;;13.43;40.85
43155;BME280;34212;51.018;13.586;2023-04-27T12:29:29;98222.00;;;13.31;40.94
43155;BME280;34212;51.018;13.586;2023-04-27T12:34:32;98223.09;;;13.07;41.13
43155;BME280;34212;51.018;13.586;2023-04-27T12:39:34;98227.81;;;13.05;41.30
43155;BME280;34212;51.018;13.586;2023-04-27T12:44:36;98220.91;;;13.25;41.67
43155;BME280;34212;51.018;13.586;2023-04-27T12:49:37;98206.16;;;13.51;41.42
43155;BME280;34212;51.018;13.586;2023-04-27T12:54:39;98208.84;;;13.51;41.75
43155;BME280;34212;51.018;13.586;2023-04-27T12:59:40;98216.28;;;13.34;41.44
43155;BME280;34212;51.018;13.586;2023-04-27T13:04:42;98224.13;;;13.35;40.83
43155;BME280;34212;51.018;13.586;2023-04-27T13:09:44;98212.03;;;15.03;39.64
43155;BME280;34212;51.018;13.586;2023-04-27T13:14:45;98208.69;;;16.30;37.89
43155;BME280;34212;51.018;13.586;2023-04-27T13:19:47;98204.88;;;17.18;35.87
43155;BME280;34212;51.018;13.586;2023-04-27T13:24:48;98206.94;;;18.06;33.37
43155;BME280;34212;51.018;13.586;2023-04-27T13:29:49;98200.47;;;18.88;32.79
43155;BME280;34212;51.018;13.586;2023-04-27T13:34:51;98201.94;;;20.06;32.26
43155;BME280;34212;51.018;13.586;2023-04-27T13:39:52;98202.56;;;20.32;31.55
43155;BME280;34212;51.018;13.586;2023-04-27T13:44:54;98191.91;;;19.28;32.71
43155;BME280;34212;51.018;13.586;2023-04-27T13:49:57;98193.31;;;17.94;33.64
43155;BME280;34212;51.018;13.586;2023-04-27T13:54:58;98191.69;;;16.83;34.62
43155;BME280;34212;51.018;13.586;2023-04-27T14:00:00;98172.66;;;16.45;35.00
43155;BME280;34212;51.018;13.586;2023-04-27T14:05:02;98169.75;;;16.20;35.60
43155;BME280;34212;51.018;13.586;2023-04-27T14:10:05;98181.09;;;15.82;36.10
43155;BME280;34212;51.018;13.586;2023-04-27T14:15:07;98186.81;;;15.52;36.29
43155;BME280;34212;51.018;13.586;2023-04-27T14:20:08;98172.19;;;15.13;36.77
43155;BME280;34212;51.018;13.586;2023-04-27T14:25:10;98182.19;;;14.91;36.73
43155;BME280;34212;51.018;13.586;2023-04-27T14:30:12;98176.78;;;14.85;36.02
43155;BME280;34212;51.018;13.586;2023-04-27T14:35:13;98167.16;;;14.97;36.68
43155;BME280;34212;51.018;13.586;2023-04-27T14:40:15;98164.69;;;15.50;36.64
43155;BME280;34212;51.018;13.586;2023-04-27T14:45:16;98172.03;;;16.23;35.76
43155;BME280;34212;51.018;13.586;2023-04-27T14:50:19;98175.97;;;16.80;35.18
43155;BME280;34212;51.018;13.586;2023-04-27T14:55:20;98176.28;;;17.17;34.33
43155;BME280;34212;51.018;13.586;2023-04-27T15:00:22;98172.03;;;17.34;33.52
43155;BME280;34212;51.018;13.586;2023-04-27T15:05:23;98169.22;;;18.24;32.68
43155;BME280;34212;51.018;13.586;2023-04-27T15:10:25;98181.91;;;19.47;31.62
43155;BME280;34212;51.018;13.586;2023-04-27T15:15:27;98180.06;;;19.11;31.83
43155;BME280;34212;51.018;13.586;2023-04-27T15:20:28;98178.38;;;17.53;32.76
43155;BME280;34212;51.018;13.586;2023-04-27T15:25:30;98177.63;;;16.41;33.62
43155;BME280;34212;51.018;13.586;2023-04-27T15:30:33;98179.28;;;15.96;34.83
43155;BME280;34212;51.018;13.586;2023-04-27T15:35:35;98175.53;;;15.83;35.15
43155;BME280;34212;51.018;13.586;2023-04-27T15:40:39;98175.03;;;15.53;35.50
43155;BME280;34212;51.018;13.586;2023-04-27T15:45:40;98172.03;;;15.21;35.52
43155;BME280;34212;51.018;13.586;2023-04-27T15:50:43;98167.09;;;14.84;36.44
43155;BME280;34212;51.018;13.586;2023-04-27T15:55:45;98168.22;;;14.61;36.56
43155;BME280;34212;51.018;13.586;2023-04-27T16:00:47;98157.63;;;14.53;36.25
43155;BME280;34212;51.018;13.586;2023-04-27T16:05:48;98156.31;;;14.49;36.37
43155;BME280;34212;51.018;13.586;2023-04-27T16:10:51;98150.06;;;14.42;36.75
43155;BME280;34212;51.018;13.586;2023-04-27T16:15:52;98148.31;;;14.27;36.83
43155;BME280;34212;51.018;13.586;2023-04-27T16:20:54;98141.56;;;14.10;37.15
43155;BME280;34212;51.018;13.586;2023-04-27T16:25:55;98133.84;;;14.22;37.29
43155;BME280;34212;51.018;13.586;2023-04-27T16:30:57;98132.03;;;14.57;36.87
43155;BME280;34212;51.018;13.586;2023-04-27T16:35:59;98122.06;;;15.40;36.38
43155;BME280;34212;51.018;13.586;2023-04-27T16:41:00;98128.75;;;16.57;35.41
43155;BME280;34212;51.018;13.586;2023-04-27T16:46:02;98123.19;;;17.55;34.15
43155;BME280;34212;51.018;13.586;2023-04-27T16:51:03;98121.38;;;17.04;34.48
43155;BME280;34212;51.018;13.586;2023-04-27T16:56:05;98129.00;;;16.09;35.34
43155;BME280;34212;51.018;13.586;2023-04-27T17:01:07;98142.22;;;15.16;36.38
43155;BME280;34212;51.018;13.586;2023-04-27T17:06:09;98145.22;;;14.52;37.04
43155;BME280;34212;51.018;13.586;2023-04-27T17:11:10;98140.81;;;14.16;37.19
43155;BME280;34212;51.018;13.586;2023-04-27T17:16:12;98149.66;;;13.89;37.46
43155;BME280;34212;51.018;13.586;2023-04-27T17:21:16;98145.75;;;13.70;38.13
43155;BME280;34212;51.018;13.586;2023-04-27T17:26:18;98135.47;;;13.52;38.11
43155;BME280;34212;51.018;13.586;2023-04-27T17:31:21;98148.50;;;13.33;38.36
43155;BME280;34212;51.018;13.586;2023-04-27T17:36:23;98144.72;;;13.13;38.46
43155;BME280;34212;51.018;13.586;2023-04-27T17:41:24;98145.66;;;12.90;38.60
43155;BME280;34212;51.018;13.586;2023-04-27T17:46:26;98151.69;;;12.63;39.14
43155;BME280;34212;51.018;13.586;2023-04-27T17:51:55;98154.16;;;12.35;39.75
43155;BME280;34212;51.018;13.586;2023-04-27T17:56:57;98156.84;;;12.12;39.61
43155;BME280;34212;51.018;13.586;2023-04-27T18:01:59;98148.72;;;11.90;39.99
43155;BME280;34212;51.018;13.586;2023-04-27T18:07:01;98157.00;;;11.72;40.32
43155;BME280;34212;51.018;13.586;2023-04-27T18:12:03;98157.28;;;11.54;41.19
43155;BME280;34212;51.018;13.586;2023-04-27T18:17:10;98160.44;;;11.35;41.52
43155;BME280;34212;51.018;13.586;2023-04-27T18:22:12;98167.53;;;11.20;41.98
43155;BME280;34212;51.018;13.586;2023-04-27T18:27:13;98169.25;;;11.04;41.80
43155;BME280;34212;51.018;13.586;2023-04-27T18:32:18;98177.50;;;10.86;42.66
43155;BME280;34212;51.018;13.586;2023-04-27T18:37:20;98183.72;;;10.71;43.24
43155;BME280;34212;51.018;13.586;2023-04-27T18:42:22;98187.13;;;10.56;43.60
43155;BME280;34212;51.018;13.586;2023-04-27T18:47:24;98190.13;;;10.45;43.34
43155;BME280;34212;51.018;13.586;2023-04-27T18:52:25;98201.31;;;10.32;43.95
43155;BME280;34212;51.018;13.586;2023-04-27T18:57:27;98203.13;;;10.24;43.99
43155;BME280;34212;51.018;13.586;2023-04-27T19:02:28;98207.47;;;10.16;44.63
43155;BME280;34212;51.018;13.586;2023-04-27T19:07:30;98208.63;;;10.14;44.74
43155;BME280;34212;51.018;13.586;2023-04-27T19:12:32;98211.81;;;10.09;44.65
43155;BME280;34212;51.018;13.586;2023-04-27T19:17:34;98215.28;;;10.02;44.88
43155;BME280;34212;51.018;13.586;2023-04-27T19:22:36;98209.78;;;9.95;45.62
43155;BME280;34212;51.018;13.586;2023-04-27T19:27:37;98214.78;;;9.90;45.59
43155;BME280;34212;51.018;13.586;2023-04-27T19:32:39;98222.59;;;9.83;45.69
43155;BME280;34212;51.018;13.586;2023-04-27T19:37:40;98217.44;;;9.74;45.62
43155;BME280;34212;51.018;13.586;2023-04-27T19:42:42;98207.25;;;9.61;46.25
43155;BME280;34212;51.018;13.586;2023-04-27T19:47:43;98210.06;;;9.51;46.71
43155;BME280;34212;51.018;13.586;2023-04-27T19:52:45;98203.38;;;9.39;46.60
43155;BME280;34212;51.018;13.586;2023-04-27T19:57:47;98190.03;;;9.31;47.07
43155;BME280;34212;51.018;13.586;2023-04-27T20:02:49;98189.88;;;9.24;47.40
43155;BME280;34212;51.018;13.586;2023-04-27T20:07:53;98188.69;;;9.18;47.38
43155;BME280;34212;51.018;13.586;2023-04-27T20:12:55;98186.34;;;9.15;47.46
43155;BME280;34212;51.018;13.586;2023-04-27T20:17:57;98186.84;;;9.11;47.30
43155;BME280;34212;51.018;13.586;2023-04-27T20:22:59;98190.50;;;9.10;48.09
43155;BME280;34212;51.018;13.586;2023-04-27T20:28:00;98190.66;;;9.08;47.70
43155;BME280;34212;51.018;13.586;2023-04-27T20:33:02;98178.66;;;9.04;47.71
43155;BME280;34212;51.018;13.586;2023-04-27T20:38:04;98178.47;;;8.97;48.56
43155;BME280;34212;51.018;13.586;2023-04-27T20:43:05;98187.25;;;8.90;48.46
43155;BME280;34212;51.018;13.586;2023-04-27T20:48:08;98179.56;;;8.78;49.27
43155;BME280;34212;51.018;13.586;2023-04-27T20:53:12;98178.00;;;8.68;48.97
43155;BME280;34212;51.018;13.586;2023-04-27T20:58:13;98184.66;;;8.64;48.90
43155;BME280;34212;51.018;13.586;2023-04-27T21:03:14;98186.25;;;8.56;49.17
43155;BME280;34212;51.018;13.586;2023-04-27T21:08:16;98180.72;;;8.50;49.28
43155;BME280;34212;51.018;13.586;2023-04-27T21:13:18;98174.38;;;8.43;49.87
43155;BME280;34212;51.018;13.586;2023-04-27T21:18:20;98171.63;;;8.34;49.41
43155;BME280;34212;51.018;13.586;2023-04-27T21:23:33;98157.50;;;8.26;50.09
43155;BME280;34212;51.018;13.586;2023-04-27T21:28:35;98151.94;;;8.19;49.66
43155;BME280;34212;51.018;13.586;2023-04-27T21:33:37;98155.06;;;8.15;49.76
43155;BME280;34212;51.018;13.586;2023-04-27T21:38:38;98152.03;;;8.09;49.98
43155;BME280;34212;51.018;13.586;2023-04-27T21:43:40;98156.00;;;8.05;50.11
43155;BME280;34212;51.018;13.586;2023-04-27T21:48:42;98147.66;;;8.00;50.01
43155;BME280;34212;51.018;13.586;2023-04-27T21:53:43;98144.66;;;7.95;50.77
43155;BME280;34212;51.018;13.586;2023-04-27T21:58:45;98130.16;;;7.90;50.35
